createdAt,value
2023-03-06T00:00:50.462Z,0.00
2023-03-06T00:01:50.450Z,0.00
2023-03-06T00:02:52.098Z,0.00
2023-03-06T00:03:50.578Z,0.00
2023-03-06T00:04:50.460Z,0.00
2023-03-06T00:05:50.422Z,0.00
2023-03-06T00:06:50.412Z,0.00
2023-03-06T00:07:50.399Z,0.00
2023-03-06T00:08:50.497Z,0.00
2023-03-06T00:09:50.366Z,0.00
2023-03-06T00:10:50.516Z,0.00
2023-03-06T00:11:50.376Z,0.00
2023-03-06T00:12:50.336Z,0.00
2023-03-06T00:13:50.318Z,0.00
2023-03-06T00:14:50.304Z,0.00
2023-03-06T00:15:50.411Z,0.00
2023-03-06T00:16:50.338Z,0.00
2023-03-06T00:17:50.366Z,0.00
2023-03-06T00:18:50.289Z,0.00
2023-03-06T00:19:50.284Z,0.00
2023-03-06T00:20:50.245Z,0.00
2023-03-06T00:21:50.280Z,0.00
2023-03-06T00:22:50.248Z,0.00
2023-03-06T00:23:50.205Z,0.00
2023-03-06T00:24:50.292Z,0.00
2023-03-06T00:25:50.316Z,0.00
2023-03-06T00:26:50.223Z,0.00
2023-03-06T00:27:50.286Z,0.00
2023-03-06T00:28:50.179Z,0.00
2023-03-06T00:29:50.156Z,0.00
2023-03-06T00:30:50.145Z,0.00
2023-03-06T00:31:50.198Z,0.00
2023-03-06T00:32:50.104Z,0.00
2023-03-06T00:33:50.122Z,0.00
2023-03-06T00:34:50.150Z,0.00
2023-03-06T00:35:50.190Z,0.00
2023-03-06T00:36:50.118Z,0.00
2023-03-06T00:37:50.152Z,0.00
2023-03-06T00:38:50.083Z,0.00
2023-03-06T00:39:50.061Z,0.00
2023-03-06T00:40:50.146Z,0.00
2023-03-06T00:41:50.015Z,0.00
2023-03-06T00:42:50.068Z,0.00
2023-03-06T00:43:50.020Z,0.00
2023-03-06T00:44:50.009Z,0.00
2023-03-06T00:45:50.053Z,0.00
2023-03-06T00:46:50.047Z,0.00
2023-03-06T00:47:49.945Z,0.00
2023-03-06T00:48:50.033Z,0.00
2023-03-06T00:49:49.991Z,0.00
2023-03-06T00:50:50.030Z,0.00
2023-03-06T00:51:49.961Z,0.00
2023-03-06T00:52:50.022Z,0.00
2023-03-06T00:53:49.946Z,0.00
2023-03-06T00:54:49.926Z,0.00
2023-03-06T00:55:49.902Z,0.00
2023-03-06T00:56:49.900Z,0.00
2023-03-06T00:57:49.843Z,0.00
2023-03-06T00:58:49.909Z,0.00
2023-03-06T00:59:49.903Z,0.00
2023-03-06T01:00:49.860Z,0.00
2023-03-06T01:01:49.826Z,0.00
2023-03-06T01:02:49.804Z,0.00
2023-03-06T01:03:49.888Z,0.00
2023-03-06T01:04:49.826Z,0.00
2023-03-06T01:05:49.831Z,0.00
2023-03-06T01:06:49.765Z,0.00
2023-03-06T01:07:49.837Z,0.00
2023-03-06T01:08:49.786Z,0.00
2023-03-06T01:09:49.724Z,0.00
2023-03-06T01:10:49.754Z,0.00
2023-03-06T01:11:49.771Z,0.00
2023-03-06T01:12:49.794Z,0.00
2023-03-06T01:13:49.676Z,0.00
2023-03-06T01:14:49.651Z,0.00
2023-03-06T01:15:49.701Z,0.00
2023-03-06T01:16:49.728Z,0.00
2023-03-06T01:17:49.673Z,0.00
2023-03-06T01:18:49.639Z,0.00
2023-03-06T01:19:49.613Z,0.00
2023-03-06T01:20:49.658Z,0.00
2023-03-06T01:21:49.602Z,0.00
2023-03-06T01:22:49.661Z,0.00
2023-03-06T01:23:49.590Z,0.00
2023-03-06T01:24:49.544Z,0.00
2023-03-06T01:25:49.646Z,0.00
2023-03-06T01:26:49.580Z,0.00
2023-03-06T01:27:49.534Z,0.00
2023-03-06T01:28:49.635Z,0.00
2023-03-06T01:29:49.561Z,0.00
2023-03-06T01:30:49.503Z,0.00
2023-03-06T01:31:49.593Z,0.00
2023-03-06T01:32:49.464Z,0.00
2023-03-06T01:33:49.526Z,0.00
2023-03-06T01:34:49.470Z,0.00
2023-03-06T01:35:49.520Z,0.00
2023-03-06T01:36:49.429Z,0.00
2023-03-06T01:37:49.490Z,0.00
2023-03-06T01:38:49.473Z,0.00
2023-03-06T01:39:49.456Z,0.00
2023-03-06T01:40:49.409Z,0.00
2023-03-06T01:41:49.619Z,0.00
2023-03-06T01:42:49.423Z,0.00
2023-03-06T01:43:49.391Z,0.00
2023-03-06T01:44:49.395Z,0.00
2023-03-06T01:45:49.453Z,0.00
2023-03-06T01:46:49.395Z,0.00
2023-03-06T01:47:49.347Z,0.00
2023-03-06T01:48:49.359Z,0.00
2023-03-06T01:49:49.395Z,0.00
2023-03-06T01:50:49.325Z,0.00
2023-03-06T01:51:49.304Z,0.00
2023-03-06T01:52:49.350Z,0.00
2023-03-06T01:53:49.299Z,0.00
2023-03-06T01:54:49.250Z,0.00
2023-03-06T01:55:49.254Z,0.00
2023-03-06T01:56:49.234Z,0.00
2023-03-06T01:57:49.377Z,0.00
2023-03-06T01:58:49.273Z,0.00
2023-03-06T01:59:49.257Z,0.00
2023-03-06T02:00:49.336Z,0.00
2023-03-06T02:01:49.201Z,0.00
2023-03-06T02:02:49.247Z,0.00
2023-03-06T02:03:49.240Z,0.00
2023-03-06T02:04:49.239Z,0.00
2023-03-06T02:05:49.172Z,0.00
2023-03-06T02:06:49.207Z,0.00
2023-03-06T02:07:49.205Z,0.00
2023-03-06T02:08:49.173Z,0.00
2023-03-06T02:09:49.128Z,0.00
2023-03-06T02:10:49.146Z,0.00
2023-03-06T02:11:49.216Z,0.00
2023-03-06T02:12:49.121Z,0.00
2023-03-06T02:13:49.107Z,0.00
2023-03-06T02:14:49.151Z,0.00
2023-03-06T02:15:49.070Z,0.00
2023-03-06T02:16:49.175Z,0.00
2023-03-06T02:17:49.061Z,0.00
2023-03-06T02:18:49.101Z,0.00
2023-03-06T02:19:49.133Z,0.00
2023-03-06T02:20:49.060Z,0.00
2023-03-06T02:21:48.966Z,0.00
2023-03-06T02:22:48.980Z,0.00
2023-03-06T02:23:48.980Z,0.00
2023-03-06T02:24:48.987Z,0.00
2023-03-06T02:25:48.981Z,0.00
2023-03-06T02:26:48.924Z,0.00
2023-03-06T02:27:48.921Z,0.00
2023-03-06T02:28:48.921Z,0.00
2023-03-06T02:29:48.929Z,0.00
2023-03-06T02:30:49.085Z,0.00
2023-03-06T02:31:48.912Z,0.00
2023-03-06T02:32:48.875Z,0.00
2023-03-06T02:33:48.857Z,0.00
2023-03-06T02:34:48.878Z,0.00
2023-03-06T02:35:48.880Z,0.00
2023-03-06T02:36:48.862Z,0.00
2023-03-06T02:37:48.820Z,0.00
2023-03-06T02:38:48.778Z,0.00
2023-03-06T02:39:48.802Z,0.00
2023-03-06T02:40:48.779Z,0.00
2023-03-06T02:41:48.844Z,0.00
2023-03-06T02:42:48.799Z,0.00
2023-03-06T02:43:48.745Z,0.00
2023-03-06T02:44:48.740Z,0.00
2023-03-06T02:45:48.833Z,0.00
2023-03-06T02:46:48.724Z,0.00
2023-03-06T02:47:48.760Z,0.00
2023-03-06T02:48:48.722Z,0.00
2023-03-06T02:49:48.687Z,0.00
2023-03-06T02:50:48.703Z,0.00
2023-03-06T02:51:48.731Z,0.00
2023-03-06T02:52:48.671Z,0.00
2023-03-06T02:53:48.654Z,0.00
2023-03-06T02:54:48.711Z,0.00
2023-03-06T02:55:48.600Z,0.00
2023-03-06T02:56:48.725Z,0.00
2023-03-06T02:57:48.582Z,0.00
2023-03-06T02:58:48.710Z,0.00
2023-03-06T02:59:48.630Z,0.00
2023-03-06T03:00:48.571Z,0.00
2023-03-06T03:01:48.707Z,0.00
2023-03-06T03:02:48.591Z,0.00
2023-03-06T03:03:48.543Z,0.00
2023-03-06T03:04:48.569Z,0.00
2023-03-06T03:05:48.543Z,0.00
2023-03-06T03:06:48.549Z,0.00
2023-03-06T03:07:48.581Z,0.00
2023-03-06T03:08:48.482Z,0.00
2023-03-06T03:09:48.513Z,0.00
2023-03-06T03:10:48.461Z,0.00
2023-03-06T03:11:48.447Z,0.00
2023-03-06T03:12:48.455Z,0.00
2023-03-06T03:13:48.578Z,0.00
2023-03-06T03:14:48.416Z,0.00
2023-03-06T03:15:48.526Z,0.00
2023-03-06T03:16:48.397Z,0.00
2023-03-06T03:17:48.399Z,0.00
2023-03-06T03:18:48.357Z,0.00
2023-03-06T03:19:48.417Z,0.00
2023-03-06T03:20:48.381Z,0.00
2023-03-06T03:21:48.381Z,0.00
2023-03-06T03:22:48.469Z,0.00
2023-03-06T03:23:48.405Z,0.00
2023-03-06T03:24:48.421Z,0.00
2023-03-06T03:25:48.266Z,0.00
2023-03-06T03:26:48.276Z,0.00
2023-03-06T03:27:48.287Z,0.00
2023-03-06T03:28:48.354Z,0.00
2023-03-06T03:29:48.303Z,0.00
2023-03-06T03:30:48.328Z,0.00
2023-03-06T03:31:48.276Z,0.00
2023-03-06T03:32:48.276Z,0.00
2023-03-06T03:33:48.198Z,0.00
2023-03-06T03:34:48.237Z,0.00
2023-03-06T03:35:48.230Z,0.00
2023-03-06T03:36:48.271Z,0.00
2023-03-06T03:37:48.203Z,0.00
2023-03-06T03:38:48.222Z,0.00
2023-03-06T03:39:48.175Z,0.00
2023-03-06T03:40:48.148Z,0.00
2023-03-06T03:41:48.502Z,0.00
2023-03-06T03:42:48.115Z,0.00
2023-03-06T03:43:48.136Z,0.00
2023-03-06T03:44:48.154Z,0.00
2023-03-06T03:45:48.223Z,0.00
2023-03-06T03:46:48.191Z,0.00
2023-03-06T03:47:48.093Z,0.00
2023-03-06T03:48:48.049Z,0.00
2023-03-06T03:49:48.106Z,0.00
2023-03-06T03:50:48.133Z,0.00
2023-03-06T03:51:48.057Z,0.00
2023-03-06T03:52:48.004Z,0.00
2023-03-06T03:53:48.110Z,0.00
2023-03-06T03:54:48.018Z,0.00
2023-03-06T03:55:48.020Z,0.00
2023-03-06T03:56:47.978Z,0.00
2023-03-06T03:57:47.984Z,0.00
2023-03-06T03:58:48.021Z,0.00
2023-03-06T03:59:48.077Z,0.00
2023-03-06T04:00:47.917Z,0.00
2023-03-06T04:01:48.081Z,0.00
2023-03-06T04:02:48.109Z,0.00
2023-03-06T04:03:47.931Z,0.00
2023-03-06T04:04:48.058Z,0.00
2023-03-06T04:05:47.910Z,0.00
2023-03-06T04:06:47.892Z,0.00
2023-03-06T04:07:47.951Z,0.00
2023-03-06T04:08:47.839Z,0.00
2023-03-06T04:09:47.862Z,0.00
2023-03-06T04:10:47.911Z,0.00
2023-03-06T04:11:47.824Z,0.00
2023-03-06T04:12:47.888Z,0.00
2023-03-06T04:13:47.830Z,0.00
2023-03-06T04:14:47.827Z,0.00
2023-03-06T04:15:47.880Z,0.00
2023-03-06T04:16:47.794Z,0.00
2023-03-06T04:17:47.777Z,0.00
2023-03-06T04:18:47.759Z,0.00
2023-03-06T04:19:47.749Z,0.00
2023-03-06T04:20:47.731Z,0.00
2023-03-06T04:21:47.719Z,0.00
2023-03-06T04:22:47.722Z,0.00
2023-03-06T04:23:47.734Z,0.00
2023-03-06T04:24:47.704Z,0.00
2023-03-06T04:25:47.685Z,0.00
2023-03-06T04:26:47.663Z,0.00
2023-03-06T04:27:47.703Z,0.00
2023-03-06T04:28:47.636Z,0.00
2023-03-06T04:29:47.658Z,0.00
2023-03-06T04:30:47.741Z,0.00
2023-03-06T04:31:47.862Z,0.00
2023-03-06T04:32:47.584Z,0.00
2023-03-06T04:33:47.633Z,0.00
2023-03-06T04:34:47.585Z,0.00
2023-03-06T04:35:47.652Z,0.00
2023-03-06T04:36:47.587Z,0.00
2023-03-06T04:37:47.647Z,0.00
2023-03-06T04:38:47.577Z,0.00
2023-03-06T04:39:47.518Z,0.00
2023-03-06T04:40:47.659Z,0.00
2023-03-06T04:41:47.530Z,0.00
2023-03-06T04:42:47.502Z,0.00
2023-03-06T04:43:47.517Z,0.00
2023-03-06T04:44:47.526Z,0.00
2023-03-06T04:45:47.512Z,0.00
2023-03-06T04:46:47.495Z,0.00
2023-03-06T04:47:47.506Z,0.00
2023-03-06T04:48:47.450Z,0.00
2023-03-06T04:49:47.563Z,0.00
2023-03-06T04:50:47.478Z,0.00
2023-03-06T04:51:47.531Z,0.00
2023-03-06T04:52:47.377Z,0.00
2023-03-06T04:53:47.389Z,0.00
2023-03-06T04:54:47.426Z,0.00
2023-03-06T04:55:47.389Z,0.00
2023-03-06T04:56:47.364Z,0.00
2023-03-06T04:57:47.484Z,0.00
2023-03-06T04:58:47.330Z,0.00
2023-03-06T04:59:47.336Z,0.00
2023-03-06T05:00:47.352Z,0.00
2023-03-06T05:01:47.377Z,0.00
2023-03-06T05:02:47.248Z,0.00
2023-03-06T05:03:47.272Z,0.00
2023-03-06T05:04:47.238Z,0.00
2023-03-06T05:05:47.229Z,0.00
2023-03-06T05:06:47.232Z,0.00
2023-03-06T05:07:47.216Z,0.00
2023-03-06T05:08:47.194Z,0.00
2023-03-06T05:09:47.210Z,0.00
2023-03-06T05:10:47.175Z,0.00
2023-03-06T05:11:47.182Z,0.00
2023-03-06T05:12:47.176Z,0.00
2023-03-06T05:13:47.153Z,0.00
2023-03-06T05:14:48.114Z,0.00
2023-03-06T05:15:47.131Z,0.00
2023-03-06T05:16:47.207Z,0.00
2023-03-06T05:17:47.108Z,0.00
2023-03-06T05:18:50.175Z,0.00
2023-03-06T05:19:47.085Z,0.00
2023-03-06T05:20:47.103Z,0.00
2023-03-06T05:21:47.086Z,0.00
2023-03-06T05:22:47.049Z,0.00
2023-03-06T05:23:47.041Z,0.00
2023-03-06T05:24:47.017Z,0.00
2023-03-06T05:25:47.009Z,0.00
2023-03-06T05:26:47.008Z,0.00
2023-03-06T05:27:47.001Z,0.00
2023-03-06T05:28:46.991Z,0.00
2023-03-06T05:29:46.982Z,0.00
2023-03-06T05:30:46.984Z,0.00
2023-03-06T05:31:46.994Z,0.00
2023-03-06T05:32:46.980Z,0.00
2023-03-06T05:33:46.937Z,0.00
2023-03-06T05:34:46.853Z,1.00
2023-03-06T05:35:46.945Z,0.00
2023-03-06T05:36:46.877Z,1.00
2023-03-06T05:37:46.845Z,1.00
2023-03-06T05:38:46.960Z,0.00
2023-03-06T05:39:46.818Z,2.00
2023-03-06T05:40:46.805Z,2.00
2023-03-06T05:41:46.801Z,1.00
2023-03-06T05:42:46.804Z,2.00
2023-03-06T05:43:46.794Z,2.00
2023-03-06T05:44:46.791Z,3.00
2023-03-06T05:45:46.813Z,2.00
2023-03-06T05:46:46.755Z,4.00
2023-03-06T05:47:46.744Z,7.00
2023-03-06T05:48:47.098Z,7.00
2023-03-06T05:49:46.735Z,7.00
2023-03-06T05:50:46.763Z,9.00
2023-03-06T05:51:46.720Z,10.00
2023-03-06T05:52:46.727Z,15.00
2023-03-06T05:53:46.678Z,18.00
2023-03-06T05:54:46.669Z,20.00
2023-03-06T05:55:46.672Z,20.00
2023-03-06T05:56:46.648Z,23.00
2023-03-06T05:57:46.670Z,21.00
2023-03-06T05:58:46.660Z,21.00
2023-03-06T05:59:46.611Z,22.00
2023-03-06T06:00:46.636Z,27.00
2023-03-06T06:01:46.619Z,31.00
2023-03-06T06:02:46.580Z,33.00
2023-03-06T06:03:46.631Z,35.00
2023-03-06T06:04:46.566Z,37.00
2023-03-06T06:05:46.583Z,41.00
2023-03-06T06:06:46.576Z,41.00
2023-03-06T06:07:46.506Z,49.00
2023-03-06T06:08:46.544Z,51.00
2023-03-06T06:09:46.575Z,54.00
2023-03-06T06:10:46.524Z,54.00
2023-03-06T06:11:46.470Z,56.00
2023-03-06T06:12:46.487Z,65.00
2023-03-06T06:13:46.456Z,75.00
2023-03-06T06:14:46.491Z,85.00
2023-03-06T06:15:46.519Z,88.00
2023-03-06T06:16:46.450Z,79.00
2023-03-06T06:17:46.416Z,81.00
2023-03-06T06:18:46.442Z,105.00
2023-03-06T06:19:46.464Z,127.00
2023-03-06T06:20:46.382Z,118.00
2023-03-06T06:21:46.423Z,117.00
2023-03-06T06:22:46.446Z,116.00
2023-03-06T06:23:46.401Z,128.00
2023-03-06T06:24:46.361Z,161.00
2023-03-06T06:25:46.376Z,214.00
2023-03-06T06:26:46.358Z,241.00
2023-03-06T06:27:46.325Z,231.00
2023-03-06T06:28:46.311Z,246.00
2023-03-06T06:29:46.301Z,261.00
2023-03-06T06:30:46.307Z,253.00
2023-03-06T06:31:46.278Z,257.00
2023-03-06T06:32:46.274Z,288.00
2023-03-06T06:33:46.300Z,307.00
2023-03-06T06:34:46.265Z,328.00
2023-03-06T06:35:46.422Z,322.00
2023-03-06T06:36:46.219Z,294.00
2023-03-06T06:37:46.190Z,264.00
2023-03-06T06:38:46.220Z,247.00
2023-03-06T06:39:46.200Z,248.00
2023-03-06T06:40:58.417Z,273.00
2023-03-06T06:42:02.341Z,273.00
2023-03-06T06:42:46.157Z,243.00
2023-03-06T06:43:46.156Z,223.00
2023-03-06T06:44:46.166Z,210.00
2023-03-06T06:45:46.337Z,243.00
2023-03-06T06:47:46.177Z,291.00
2023-03-06T06:48:46.212Z,327.00
2023-03-06T06:49:46.153Z,393.00
2023-03-06T06:50:46.106Z,434.00
2023-03-06T06:51:46.126Z,457.00
2023-03-06T06:52:46.163Z,470.00
2023-03-06T06:53:46.045Z,482.00
2023-03-06T06:54:46.051Z,505.00
2023-03-06T06:55:46.009Z,528.00
2023-03-06T06:56:46.015Z,551.00
2023-03-06T06:57:46.008Z,561.00
2023-03-06T06:58:45.979Z,559.00
2023-03-06T06:59:45.987Z,557.00
2023-03-06T07:00:45.969Z,565.00
2023-03-06T07:01:46.129Z,585.00
2023-03-06T07:02:45.963Z,612.00
2023-03-06T07:03:46.004Z,629.00
2023-03-06T07:05:00.696Z,630.00
2023-03-06T07:05:45.926Z,629.00
2023-03-06T07:06:45.941Z,652.00
2023-03-06T07:07:45.904Z,713.00
2023-03-06T07:08:45.966Z,797.00
2023-03-06T07:09:45.877Z,866.00
2023-03-06T07:10:45.857Z,896.00
2023-03-06T07:11:45.858Z,953.00
2023-03-06T07:12:45.853Z,1074.00
2023-03-06T07:13:45.839Z,1243.00
2023-03-06T07:14:45.827Z,1341.00
2023-03-06T07:15:45.829Z,1362.00
2023-03-06T07:16:45.813Z,1382.00
2023-03-06T07:17:46.026Z,1443.00
2023-03-06T07:18:45.766Z,1558.00
2023-03-06T07:19:45.773Z,1708.00
2023-03-06T07:20:45.756Z,1888.00
2023-03-06T07:21:45.787Z,2029.00
2023-03-06T07:22:51.282Z,2038.00
2023-03-06T07:23:45.723Z,1927.00
2023-03-06T07:24:45.713Z,1884.00
2023-03-06T07:25:45.699Z,1818.00
2023-03-06T07:26:45.724Z,1854.00
2023-03-06T07:27:52.724Z,2069.00
2023-03-06T07:28:52.275Z,2225.00
2023-03-06T07:29:45.706Z,2409.00
2023-03-06T07:30:45.637Z,2543.00
2023-03-06T07:31:45.638Z,2626.00
2023-03-06T07:32:45.663Z,2767.00
2023-03-06T07:33:45.652Z,2921.00
2023-03-06T07:34:45.635Z,3100.00
2023-03-06T07:35:45.738Z,3046.00
2023-03-06T07:36:45.668Z,3169.00
2023-03-06T07:37:45.578Z,3163.00
2023-03-06T07:38:45.577Z,3290.00
2023-03-06T07:39:45.570Z,3432.00
2023-03-06T07:40:45.670Z,3416.00
2023-03-06T07:41:46.410Z,3590.00
2023-03-06T07:42:45.518Z,3775.00
2023-03-06T07:43:45.523Z,3958.00
2023-03-06T07:44:45.500Z,3691.00
2023-03-06T07:45:45.512Z,3456.00
2023-03-06T07:46:45.657Z,3524.00
2023-03-06T07:47:45.531Z,3828.00
2023-03-06T07:48:45.458Z,3713.00
2023-03-06T07:49:45.449Z,3267.00
2023-03-06T07:50:45.449Z,3157.00
2023-03-06T07:51:45.519Z,3241.00
2023-03-06T07:52:45.448Z,3456.00
2023-03-06T07:53:45.415Z,3903.00
2023-03-06T07:54:45.410Z,3802.00
2023-03-06T07:55:45.400Z,3475.00
2023-03-06T07:56:45.478Z,3482.00
2023-03-06T07:57:45.521Z,3252.00
2023-03-06T07:58:45.445Z,3077.00
2023-03-06T07:59:45.423Z,3137.00
2023-03-06T08:00:45.341Z,3232.00
2023-03-06T08:01:45.354Z,3335.00
2023-03-06T08:02:45.335Z,3158.00
2023-03-06T08:03:45.455Z,3005.00
2023-03-06T08:04:45.413Z,2953.00
2023-03-06T08:05:45.514Z,3025.00
2023-03-06T08:06:45.324Z,3050.00
2023-03-06T08:07:45.256Z,2914.00
2023-03-06T08:08:45.267Z,3007.00
2023-03-06T08:09:45.315Z,2942.00
2023-03-06T08:10:45.293Z,2970.00
2023-03-06T08:11:45.231Z,3123.00
2023-03-06T08:12:45.301Z,3390.00
2023-03-06T08:13:45.234Z,3594.00
2023-03-06T08:14:45.197Z,3641.00
2023-03-06T08:15:45.197Z,3605.00
2023-03-06T08:16:45.245Z,3569.00
2023-03-06T08:17:45.316Z,3478.00
2023-03-06T08:18:46.583Z,3467.00
2023-03-06T08:19:45.172Z,3428.00
2023-03-06T08:20:45.144Z,3296.00
2023-03-06T08:21:45.113Z,3271.00
2023-03-06T08:22:45.142Z,3459.00
2023-03-06T08:23:45.154Z,3806.00
2023-03-06T08:24:45.090Z,4139.00
2023-03-06T08:25:45.106Z,4405.00
2023-03-06T08:26:45.084Z,4190.00
2023-03-06T08:27:45.092Z,4077.00
2023-03-06T08:28:45.048Z,4281.00
2023-03-06T08:29:45.068Z,4576.00
2023-03-06T08:30:45.029Z,4563.00
2023-03-06T08:31:45.005Z,2725.00
2023-03-06T08:32:45.018Z,8910.00
2023-03-06T08:33:45.008Z,7679.00
2023-03-06T08:34:45.037Z,9476.00
2023-03-06T08:35:45.037Z,6414.00
2023-03-06T08:36:44.980Z,5953.00
2023-03-06T08:37:45.043Z,5545.00
2023-03-06T08:38:45.057Z,5296.00
2023-03-06T08:39:44.929Z,5252.00
2023-03-06T08:40:44.938Z,5269.00
2023-03-06T08:41:45.014Z,5318.00
2023-03-06T08:42:44.936Z,5057.00
2023-03-06T08:43:44.895Z,5306.00
2023-03-06T08:44:44.884Z,4557.00
2023-03-06T08:45:44.905Z,4466.00
2023-03-06T08:46:44.972Z,4456.00
2023-03-06T08:47:44.858Z,4349.00
2023-03-06T08:48:44.868Z,4308.00
2023-03-06T08:49:44.831Z,4111.00
2023-03-06T08:50:44.825Z,3977.00
2023-03-06T08:51:44.801Z,3909.00
2023-03-06T08:52:44.847Z,3929.00
2023-03-06T08:53:44.942Z,4142.00
2023-03-06T08:54:44.768Z,4399.00
2023-03-06T08:55:44.826Z,4531.00
2023-03-06T08:56:44.764Z,4549.00
2023-03-06T08:57:44.780Z,4617.00
2023-03-06T08:58:44.762Z,4412.00
2023-03-06T08:59:44.786Z,4339.00
2023-03-06T09:00:44.972Z,4223.00
2023-03-06T09:01:44.756Z,4015.00
2023-03-06T09:02:44.775Z,4191.00
2023-03-06T09:03:44.720Z,4403.00
2023-03-06T09:04:44.669Z,4424.00
2023-03-06T09:05:44.652Z,4248.00
2023-03-06T09:06:44.641Z,3969.00
2023-03-06T09:07:44.645Z,3867.00
2023-03-06T09:08:44.810Z,3902.00
2023-03-06T09:09:44.598Z,3854.00
2023-03-06T09:10:44.788Z,3941.00
2023-03-06T09:11:44.623Z,4375.00
2023-03-06T09:12:50.161Z,4418.00
2023-03-06T09:13:44.566Z,4462.00
2023-03-06T09:14:44.595Z,4536.00
2023-03-06T09:15:44.574Z,4620.00
2023-03-06T09:16:44.659Z,4865.00
2023-03-06T09:17:44.608Z,4827.00
2023-03-06T09:18:44.571Z,4508.00
2023-03-06T09:19:44.608Z,4138.00
2023-03-06T09:20:44.481Z,3922.00
2023-03-06T09:21:44.477Z,3716.00
2023-03-06T09:22:44.555Z,3743.00
2023-03-06T09:23:44.476Z,4075.00
2023-03-06T09:24:44.532Z,4223.00
2023-03-06T09:25:44.489Z,3944.00
2023-03-06T09:26:46.722Z,3648.00
2023-03-06T09:27:44.453Z,3529.00
2023-03-06T09:28:44.427Z,3286.00
2023-03-06T09:29:44.439Z,2977.00
2023-03-06T09:30:44.394Z,2931.00
2023-03-06T09:31:44.587Z,3178.00
2023-03-06T09:32:44.446Z,3698.00
2023-03-06T09:33:44.353Z,4024.00
2023-03-06T09:34:44.372Z,4000.00
2023-03-06T09:35:44.450Z,4096.00
2023-03-06T09:36:55.831Z,4218.00
2023-03-06T09:37:44.374Z,4131.00
2023-03-06T09:38:44.357Z,4132.00
2023-03-06T09:39:44.288Z,3851.00
2023-03-06T09:40:44.393Z,3357.00
2023-03-06T09:41:44.415Z,3050.00
2023-03-06T09:42:44.296Z,2901.00
2023-03-06T09:43:44.246Z,2701.00
2023-03-06T09:44:44.255Z,2444.00
2023-03-06T09:45:44.259Z,2237.00
2023-03-06T09:46:44.237Z,2118.00
2023-03-06T09:47:44.192Z,1843.00
2023-03-06T09:48:44.213Z,1513.00
2023-03-06T09:49:44.198Z,1334.00
2023-03-06T09:50:44.165Z,1399.00
2023-03-06T09:51:44.193Z,1614.00
2023-03-06T09:52:44.197Z,1775.00
2023-03-06T09:53:44.212Z,1926.00
2023-03-06T09:54:44.153Z,2294.00
2023-03-06T09:55:44.133Z,2938.00
2023-03-06T09:56:44.147Z,3595.00
2023-03-06T09:57:44.101Z,4192.00
2023-03-06T09:58:44.150Z,4380.00
2023-03-06T09:59:44.076Z,4059.00
2023-03-06T10:00:44.153Z,3518.00
2023-03-06T10:01:44.176Z,3895.00
2023-03-06T10:02:44.127Z,4326.00
2023-03-06T10:03:44.059Z,4839.00
2023-03-06T10:04:44.143Z,5465.00
2023-03-06T10:05:44.110Z,5809.00
2023-03-06T10:06:44.040Z,5437.00
2023-03-06T10:07:44.120Z,5041.00
2023-03-06T10:08:43.988Z,5015.00
2023-03-06T10:09:44.057Z,5332.00
2023-03-06T10:10:44.073Z,5696.00
2023-03-06T10:11:43.988Z,5990.00
2023-03-06T10:12:43.943Z,6296.00
2023-03-06T10:13:43.972Z,6199.00
2023-03-06T10:14:44.043Z,6060.00
2023-03-06T10:15:44.143Z,5769.00
2023-03-06T10:16:43.915Z,5387.00
2023-03-06T10:17:43.911Z,5130.00
2023-03-06T10:18:43.891Z,5012.00
2023-03-06T10:19:43.900Z,5020.00
2023-03-06T10:20:43.850Z,4934.00
2023-03-06T10:21:43.882Z,5087.00
2023-03-06T10:22:48.026Z,4991.00
2023-03-06T10:23:43.887Z,5766.00
2023-03-06T10:24:43.805Z,6867.00
2023-03-06T10:25:43.880Z,7448.00
2023-03-06T10:26:44.108Z,7751.00
2023-03-06T10:27:43.815Z,8093.00
2023-03-06T10:28:43.777Z,8381.00
2023-03-06T10:29:56.399Z,8434.00
2023-03-06T10:30:43.819Z,15084.00
2023-03-06T10:31:43.754Z,13846.00
2023-03-06T10:32:48.755Z,14676.00
2023-03-06T10:33:43.732Z,15224.00
2023-03-06T10:34:43.818Z,13362.00
2023-03-06T10:35:43.718Z,12479.00
2023-03-06T10:36:43.721Z,17311.00
2023-03-06T10:37:43.705Z,17781.00
2023-03-06T10:38:43.678Z,12825.00
2023-03-06T10:39:43.668Z,26533.00
2023-03-06T10:40:43.761Z,18268.00
2023-03-06T10:41:45.265Z,15716.00
2023-03-06T10:42:43.728Z,14563.00
2023-03-06T10:43:43.796Z,13409.00
2023-03-06T10:44:43.616Z,13683.00
2023-03-06T10:45:48.984Z,17474.00
2023-03-06T10:46:43.781Z,9057.00
2023-03-06T10:47:43.666Z,71507.00
2023-03-06T10:48:43.603Z,20396.00
2023-03-06T10:49:43.584Z,35121.00
2023-03-06T10:50:43.622Z,18657.00
2023-03-06T10:51:43.584Z,17274.00
2023-03-06T10:52:43.665Z,11440.00
2023-03-06T10:53:43.558Z,15296.00
2023-03-06T10:54:43.530Z,13115.00
2023-03-06T10:55:43.610Z,6058.00
2023-03-06T10:56:43.690Z,10416.00
2023-03-06T10:57:43.470Z,75274.00
2023-03-06T10:58:43.476Z,68876.00
2023-03-06T10:59:43.453Z,28379.00
2023-03-06T11:00:43.488Z,17267.00
2023-03-06T11:01:43.581Z,18158.00
2023-03-06T11:02:43.501Z,13100.00
2023-03-06T11:03:43.400Z,79500.00
2023-03-06T11:04:43.574Z,74672.00
2023-03-06T11:05:43.472Z,75181.00
2023-03-06T11:06:43.368Z,64875.00
2023-03-06T11:07:43.401Z,9049.00
2023-03-06T11:08:43.365Z,75011.00
2023-03-06T11:09:43.323Z,66292.00
2023-03-06T11:10:43.329Z,9643.00
2023-03-06T11:11:43.327Z,75289.00
2023-03-06T11:12:43.345Z,79569.00
2023-03-06T11:13:43.311Z,75676.00
2023-03-06T11:14:43.391Z,64372.00
2023-03-06T11:15:43.308Z,17534.00
2023-03-06T11:16:43.335Z,12797.00
2023-03-06T11:17:43.603Z,10975.00
2023-03-06T11:18:43.249Z,7178.00
2023-03-06T11:19:43.226Z,64339.00
2023-03-06T11:20:51.408Z,16425.00
2023-03-06T11:21:43.262Z,9301.00
2023-03-06T11:22:43.200Z,6426.00
2023-03-06T11:23:43.242Z,62636.00
2023-03-06T11:24:43.305Z,13588.00
2023-03-06T11:25:43.245Z,11110.00
2023-03-06T11:26:43.259Z,9330.00
2023-03-06T11:27:43.155Z,12154.00
2023-03-06T11:28:43.183Z,12007.00
2023-03-06T11:29:43.142Z,9975.00
2023-03-06T11:30:43.251Z,15434.00
2023-03-06T11:31:43.317Z,10494.00
2023-03-06T11:32:43.169Z,13809.00
2023-03-06T11:33:43.177Z,11819.00
2023-03-06T11:34:43.076Z,12148.00
2023-03-06T11:35:43.129Z,12718.00
2023-03-06T11:36:43.080Z,10097.00
2023-03-06T11:37:43.088Z,17078.00
2023-03-06T11:38:43.134Z,13294.00
2023-03-06T11:39:43.156Z,13598.00
2023-03-06T11:40:43.055Z,12006.00
2023-03-06T11:41:43.057Z,11940.00
2023-03-06T11:42:43.127Z,11371.00
2023-03-06T11:43:42.965Z,10623.00
2023-03-06T11:44:43.037Z,8676.00
2023-03-06T11:45:43.090Z,8008.00
2023-03-06T11:46:42.983Z,28830.00
2023-03-06T11:47:42.944Z,15232.00
2023-03-06T11:48:42.995Z,71946.00
2023-03-06T11:49:42.928Z,19415.00
2023-03-06T11:50:42.945Z,80044.00
2023-03-06T11:51:43.181Z,75575.00
2023-03-06T11:52:43.048Z,74345.00
2023-03-06T11:53:43.066Z,79498.00
2023-03-06T11:54:42.853Z,63528.00
2023-03-06T11:55:42.846Z,18380.00
2023-03-06T11:56:42.837Z,13259.00
2023-03-06T11:57:42.812Z,8099.00
2023-03-06T11:58:42.860Z,7615.00
2023-03-06T11:59:42.819Z,70005.00
2023-03-06T12:00:42.849Z,28784.00
2023-03-06T12:01:42.901Z,23114.00
2023-03-06T12:02:42.863Z,21068.00
2023-03-06T12:03:42.896Z,18702.00
2023-03-06T12:04:42.805Z,12539.00
2023-03-06T12:05:42.867Z,9784.00
2023-03-06T12:06:42.861Z,70954.00
2023-03-06T12:07:42.704Z,30395.00
2023-03-06T12:08:42.747Z,14477.00
2023-03-06T12:09:42.696Z,5586.00
2023-03-06T12:10:42.688Z,30880.00
2023-03-06T12:11:42.735Z,15833.00
2023-03-06T12:12:42.703Z,13292.00
2023-03-06T12:13:42.661Z,6226.00
2023-03-06T12:14:42.666Z,78423.00
2023-03-06T12:15:42.626Z,80314.00
2023-03-06T12:16:42.659Z,80620.00
2023-03-06T12:17:42.635Z,80160.00
2023-03-06T12:18:42.597Z,61035.00
2023-03-06T12:19:42.791Z,13567.00
2023-03-06T12:20:42.643Z,9905.00
2023-03-06T12:21:42.556Z,10226.00
2023-03-06T12:22:44.311Z,9544.00
2023-03-06T12:23:42.576Z,8723.00
2023-03-06T12:24:42.543Z,7608.00
2023-03-06T12:25:42.535Z,6941.00
2023-03-06T12:26:42.590Z,6693.00
2023-03-06T12:27:42.610Z,6719.00
2023-03-06T12:28:42.493Z,7032.00
2023-03-06T12:29:42.482Z,7326.00
2023-03-06T12:30:42.496Z,7492.00
2023-03-06T12:31:42.481Z,7704.00
2023-03-06T12:32:42.487Z,7424.00
2023-03-06T12:33:42.525Z,4663.00
2023-03-06T12:34:42.429Z,18775.00
2023-03-06T12:35:42.560Z,36639.00
2023-03-06T12:36:42.588Z,8959.00
2023-03-06T12:37:42.394Z,62979.00
2023-03-06T12:38:42.390Z,5798.00